sensor_id;sensor_type;location;lat;lon;timestamp;temperature;humidity
45060;DHT22;30799;49.060;9.312;2023-03-01T00:01:09;18.70;66.20
45060;DHT22;30799;49.060;9.312;2023-03-01T00:03:36;18.70;66.90
45060;DHT22;30799;49.060;9.312;2023-03-01T00:06:04;18.60;68.00
45060;DHT22;30799;49.060;9.312;2023-03-01T00:08:31;18.60;68.80
45060;DHT22;30799;49.060;9.312;2023-03-01T00:11:06;18.70;71.40
45060;DHT22;30799;49.060;9.312;2023-03-01T00:13:34;18.60;75.80
45060;DHT22;30799;49.060;9.312;2023-03-01T00:16:09;18.70;77.40
45060;DHT22;30799;49.060;9.312;2023-03-01T00:18:35;18.70;68.90
45060;DHT22;30799;49.060;9.312;2023-03-01T00:21:02;18.60;66.20
45060;DHT22;30799;49.060;9.312;2023-03-01T00:23:29;18.70;66.60
45060;DHT22;30799;49.060;9.312;2023-03-01T00:25:56;18.70;66.10
45060;DHT22;30799;49.060;9.312;2023-03-01T00:28:22;18.80;65.60
45060;DHT22;30799;49.060;9.312;2023-03-01T00:30:49;18.70;61.80
45060;DHT22;30799;49.060;9.312;2023-03-01T00:33:16;18.60;60.10
45060;DHT22;30799;49.060;9.312;2023-03-01T00:35:42;18.70;58.80
45060;DHT22;30799;49.060;9.312;2023-03-01T00:38:09;18.60;58.00
45060;DHT22;30799;49.060;9.312;2023-03-01T00:40:36;18.60;57.60
45060;DHT22;30799;49.060;9.312;2023-03-01T00:43:03;18.60;57.50
45060;DHT22;30799;49.060;9.312;2023-03-01T00:45:31;18.70;57.20
45060;DHT22;30799;49.060;9.312;2023-03-01T00:47:59;18.90;57.40
45060;DHT22;30799;49.060;9.312;2023-03-01T00:50:25;18.70;57.30
45060;DHT22;30799;49.060;9.312;2023-03-01T00:52:54;18.60;57.70
45060;DHT22;30799;49.060;9.312;2023-03-01T00:55:21;18.60;57.10
45060;DHT22;30799;49.060;9.312;2023-03-01T00:57:48;18.60;57.00
45060;DHT22;30799;49.060;9.312;2023-03-01T01:00:15;18.70;56.90
45060;DHT22;30799;49.060;9.312;2023-03-01T01:02:42;18.70;56.40
45060;DHT22;30799;49.060;9.312;2023-03-01T01:05:09;18.60;56.00
45060;DHT22;30799;49.060;9.312;2023-03-01T01:07:36;18.60;56.10
45060;DHT22;30799;49.060;9.312;2023-03-01T01:10:03;18.70;56.10
45060;DHT22;30799;49.060;9.312;2023-03-01T01:12:29;18.70;56.00
45060;DHT22;30799;49.060;9.312;2023-03-01T01:14:56;18.70;55.50
45060;DHT22;30799;49.060;9.312;2023-03-01T01:17:23;18.70;55.70
45060;DHT22;30799;49.060;9.312;2023-03-01T01:19:49;18.60;55.60
45060;DHT22;30799;49.060;9.312;2023-03-01T01:22:16;18.70;55.50
45060;DHT22;30799;49.060;9.312;2023-03-01T01:24:42;18.70;55.90
45060;DHT22;30799;49.060;9.312;2023-03-01T01:27:09;18.70;55.80
45060;DHT22;30799;49.060;9.312;2023-03-01T01:29:36;18.70;56.10
45060;DHT22;30799;49.060;9.312;2023-03-01T01:32:03;18.80;56.00
45060;DHT22;30799;49.060;9.312;2023-03-01T01:34:29;18.70;56.10
45060;DHT22;30799;49.060;9.312;2023-03-01T01:36:56;18.70;56.00
45060;DHT22;30799;49.060;9.312;2023-03-01T01:39:23;18.70;55.90
45060;DHT22;30799;49.060;9.312;2023-03-01T01:41:49;18.70;56.00
45060;DHT22;30799;49.060;9.312;2023-03-01T01:44:22;18.70;56.00
45060;DHT22;30799;49.060;9.312;2023-03-01T01:52:05;18.70;55.90
45060;DHT22;30799;49.060;9.312;2023-03-01T01:54:56;18.70;55.90
45060;DHT22;30799;49.060;9.312;2023-03-01T01:57:27;18.70;56.30
45060;DHT22;30799;49.060;9.312;2023-03-01T01:59:58;18.70;55.70
45060;DHT22;30799;49.060;9.312;2023-03-01T02:02:27;18.70;55.90
45060;DHT22;30799;49.060;9.312;2023-03-01T02:05:03;18.70;55.80
45060;DHT22;30799;49.060;9.312;2023-03-01T02:07:38;18.70;55.90
45060;DHT22;30799;49.060;9.312;2023-03-01T02:10:06;18.70;56.10
45060;DHT22;30799;49.060;9.312;2023-03-01T02:12:34;18.70;56.10
45060;DHT22;30799;49.060;9.312;2023-03-01T02:15:02;18.70;56.10
45060;DHT22;30799;49.060;9.312;2023-03-01T02:17:29;18.70;56.00
45060;DHT22;30799;49.060;9.312;2023-03-01T02:22:46;18.70;56.30
45060;DHT22;30799;49.060;9.312;2023-03-01T02:30:29;18.70;56.30
45060;DHT22;30799;49.060;9.312;2023-03-01T02:32:58;18.70;56.50
45060;DHT22;30799;49.060;9.312;2023-03-01T02:35:31;18.70;56.00
45060;DHT22;30799;49.060;9.312;2023-03-01T02:38:00;18.70;56.10
45060;DHT22;30799;49.060;9.312;2023-03-01T02:40:29;18.70;56.40
45060;DHT22;30799;49.060;9.312;2023-03-01T02:42:58;18.70;56.00
45060;DHT22;30799;49.060;9.312;2023-03-01T02:45:26;18.70;56.10
45060;DHT22;30799;49.060;9.312;2023-03-01T02:47:56;18.70;56.20
45060;DHT22;30799;49.060;9.312;2023-03-01T02:55:22;18.70;56.00
45060;DHT22;30799;49.060;9.312;2023-03-01T02:57:49;18.70;56.10
45060;DHT22;30799;49.060;9.312;2023-03-01T03:00:21;18.70;56.30
45060;DHT22;30799;49.060;9.312;2023-03-01T03:02:50;18.70;56.40
45060;DHT22;30799;49.060;9.312;2023-03-01T03:05:22;18.70;56.50
45060;DHT22;30799;49.060;9.312;2023-03-01T03:07:49;18.70;56.20
45060;DHT22;30799;49.060;9.312;2023-03-01T03:10:37;18.70;56.40
45060;DHT22;30799;49.060;9.312;2023-03-01T03:13:10;18.70;56.40
45060;DHT22;30799;49.060;9.312;2023-03-01T03:15:38;18.70;56.30
45060;DHT22;30799;49.060;9.312;2023-03-01T03:18:12;18.70;56.40
45060;DHT22;30799;49.060;9.312;2023-03-01T03:20:40;18.70;56.20
45060;DHT22;30799;49.060;9.312;2023-03-01T03:23:07;18.70;56.20
45060;DHT22;30799;49.060;9.312;2023-03-01T03:25:34;18.70;56.10
45060;DHT22;30799;49.060;9.312;2023-03-01T03:28:05;18.70;56.30
45060;DHT22;30799;49.060;9.312;2023-03-01T03:30:38;18.70;56.30
45060;DHT22;30799;49.060;9.312;2023-03-01T03:33:06;18.70;56.30
45060;DHT22;30799;49.060;9.312;2023-03-01T03:35:38;18.70;56.30
45060;DHT22;30799;49.060;9.312;2023-03-01T03:38:06;18.70;56.20
45060;DHT22;30799;49.060;9.312;2023-03-01T03:40:39;18.70;56.10
45060;DHT22;30799;49.060;9.312;2023-03-01T03:43:09;18.70;56.10
45060;DHT22;30799;49.060;9.312;2023-03-01T03:45:36;18.70;56.30
45060;DHT22;30799;49.060;9.312;2023-03-01T03:48:05;18.70;56.20
45060;DHT22;30799;49.060;9.312;2023-03-01T03:50:32;18.70;56.10
45060;DHT22;30799;49.060;9.312;2023-03-01T03:53:05;18.70;56.00
45060;DHT22;30799;49.060;9.312;2023-03-01T03:55:32;18.70;56.10
45060;DHT22;30799;49.060;9.312;2023-03-01T03:58:02;18.70;56.10
45060;DHT22;30799;49.060;9.312;2023-03-01T04:00:34;18.50;56.50
45060;DHT22;30799;49.060;9.312;2023-03-01T04:03:02;18.70;56.10
45060;DHT22;30799;49.060;9.312;2023-03-01T04:05:29;18.70;56.10
45060;DHT22;30799;49.060;9.312;2023-03-01T04:07:56;18.70;56.30
45060;DHT22;30799;49.060;9.312;2023-03-01T04:10:32;18.70;56.10
45060;DHT22;30799;49.060;9.312;2023-03-01T04:12:59;18.70;56.30
45060;DHT22;30799;49.060;9.312;2023-03-01T04:15:26;18.70;56.30
45060;DHT22;30799;49.060;9.312;2023-03-01T04:17:54;18.70;56.20
45060;DHT22;30799;49.060;9.312;2023-03-01T04:20:24;18.70;55.70
45060;DHT22;30799;49.060;9.312;2023-03-01T04:23:06;18.70;56.70
45060;DHT22;30799;49.060;9.312;2023-03-01T04:25:52;18.70;56.30
45060;DHT22;30799;49.060;9.312;2023-03-01T04:28:36;18.70;56.20
45060;DHT22;30799;49.060;9.312;2023-03-01T04:31:06;18.70;56.40
45060;DHT22;30799;49.060;9.312;2023-03-01T04:33:48;18.70;56.60
45060;DHT22;30799;49.060;9.312;2023-03-01T04:36:16;18.70;56.10
45060;DHT22;30799;49.060;9.312;2023-03-01T04:38:44;18.70;56.70
45060;DHT22;30799;49.060;9.312;2023-03-01T04:41:16;18.70;56.60
45060;DHT22;30799;49.060;9.312;2023-03-01T04:43:47;18.70;56.30
45060;DHT22;30799;49.060;9.312;2023-03-01T04:46:17;18.70;56.30
45060;DHT22;30799;49.060;9.312;2023-03-01T04:48:45;18.70;56.50
45060;DHT22;30799;49.060;9.312;2023-03-01T04:51:13;18.70;56.70
45060;DHT22;30799;49.060;9.312;2023-03-01T04:53:41;18.70;56.30
45060;DHT22;30799;49.060;9.312;2023-03-01T04:56:08;18.70;56.70
45060;DHT22;30799;49.060;9.312;2023-03-01T04:58:34;18.70;56.40
45060;DHT22;30799;49.060;9.312;2023-03-01T05:01:08;18.80;56.70
45060;DHT22;30799;49.060;9.312;2023-03-01T05:03:46;18.70;56.60
45060;DHT22;30799;49.060;9.312;2023-03-01T05:06:13;18.70;56.40
45060;DHT22;30799;49.060;9.312;2023-03-01T05:08:41;18.70;56.40
45060;DHT22;30799;49.060;9.312;2023-03-01T05:11:08;18.70;56.50
45060;DHT22;30799;49.060;9.312;2023-03-01T05:13:36;18.70;56.70
45060;DHT22;30799;49.060;9.312;2023-03-01T05:16:04;18.80;56.70
45060;DHT22;30799;49.060;9.312;2023-03-01T05:18:33;18.70;56.80
45060;DHT22;30799;49.060;9.312;2023-03-01T05:21:09;18.80;56.50
45060;DHT22;30799;49.060;9.312;2023-03-01T05:23:36;18.70;56.30
45060;DHT22;30799;49.060;9.312;2023-03-01T05:26:04;18.70;56.20
45060;DHT22;30799;49.060;9.312;2023-03-01T05:28:37;18.70;56.70
45060;DHT22;30799;49.060;9.312;2023-03-01T05:31:04;18.70;56.50
45060;DHT22;30799;49.060;9.312;2023-03-01T05:33:37;18.70;56.30
45060;DHT22;30799;49.060;9.312;2023-03-01T05:36:08;18.70;56.60
45060;DHT22;30799;49.060;9.312;2023-03-01T05:38:36;18.70;56.50
45060;DHT22;30799;49.060;9.312;2023-03-01T05:41:03;18.70;56.50
45060;DHT22;30799;49.060;9.312;2023-03-01T05:43:32;18.70;56.80
45060;DHT22;30799;49.060;9.312;2023-03-01T05:46:02;18.70;56.40
45060;DHT22;30799;49.060;9.312;2023-03-01T05:48:29;18.80;56.60
45060;DHT22;30799;49.060;9.312;2023-03-01T05:50:59;18.70;56.70
45060;DHT22;30799;49.060;9.312;2023-03-01T05:53:26;18.70;56.60
45060;DHT22;30799;49.060;9.312;2023-03-01T05:55:53;18.70;56.80
45060;DHT22;30799;49.060;9.312;2023-03-01T05:58:20;18.70;56.90
45060;DHT22;30799;49.060;9.312;2023-03-01T06:00:47;18.70;57.00
45060;DHT22;30799;49.060;9.312;2023-03-01T06:03:16;18.70;56.80
45060;DHT22;30799;49.060;9.312;2023-03-01T06:05:44;18.70;56.90
45060;DHT22;30799;49.060;9.312;2023-03-01T06:08:12;18.80;57.10
45060;DHT22;30799;49.060;9.312;2023-03-01T06:10:38;18.70;57.20
45060;DHT22;30799;49.060;9.312;2023-03-01T06:13:05;18.70;57.10
45060;DHT22;30799;49.060;9.312;2023-03-01T06:15:32;18.70;57.00
45060;DHT22;30799;49.060;9.312;2023-03-01T06:17:58;18.70;57.00
45060;DHT22;30799;49.060;9.312;2023-03-01T06:20:27;18.80;57.00
45060;DHT22;30799;49.060;9.312;2023-03-01T06:22:55;18.70;57.00
45060;DHT22;30799;49.060;9.312;2023-03-01T06:25:23;18.70;57.30
45060;DHT22;30799;49.060;9.312;2023-03-01T06:27:50;18.80;57.20
45060;DHT22;30799;49.060;9.312;2023-03-01T06:30:20;18.80;57.10
45060;DHT22;30799;49.060;9.312;2023-03-01T06:32:48;18.70;57.20
45060;DHT22;30799;49.060;9.312;2023-03-01T06:35:15;18.70;57.10
45060;DHT22;30799;49.060;9.312;2023-03-01T06:37:47;18.70;57.10
45060;DHT22;30799;49.060;9.312;2023-03-01T06:40:14;18.70;57.30
45060;DHT22;30799;49.060;9.312;2023-03-01T06:42:42;18.80;57.20
45060;DHT22;30799;49.060;9.312;2023-03-01T06:45:09;18.70;57.20
45060;DHT22;30799;49.060;9.312;2023-03-01T06:47:36;18.70;57.00
45060;DHT22;30799;49.060;9.312;2023-03-01T06:50:03;18.80;57.20
45060;DHT22;30799;49.060;9.312;2023-03-01T06:52:30;18.80;57.70
45060;DHT22;30799;49.060;9.312;2023-03-01T06:54:57;18.70;57.40
45060;DHT22;30799;49.060;9.312;2023-03-01T06:57:24;18.70;57.70
45060;DHT22;30799;49.060;9.312;2023-03-01T06:59:50;18.70;57.70
45060;DHT22;30799;49.060;9.312;2023-03-01T07:02:18;18.70;57.30
45060;DHT22;30799;49.060;9.312;2023-03-01T07:04:44;18.70;57.50
45060;DHT22;30799;49.060;9.312;2023-03-01T07:07:11;18.80;57.80
45060;DHT22;30799;49.060;9.312;2023-03-01T07:09:37;18.70;58.00
45060;DHT22;30799;49.060;9.312;2023-03-01T07:12:04;18.80;57.80
45060;DHT22;30799;49.060;9.312;2023-03-01T07:14:31;18.80;57.40
45060;DHT22;30799;49.060;9.312;2023-03-01T07:16:58;18.70;57.40
45060;DHT22;30799;49.060;9.312;2023-03-01T07:19:24;18.80;57.50
45060;DHT22;30799;49.060;9.312;2023-03-01T07:21:51;18.80;57.80
45060;DHT22;30799;49.060;9.312;2023-03-01T07:24:17;18.80;57.70
45060;DHT22;30799;49.060;9.312;2023-03-01T07:26:47;18.80;58.50
45060;DHT22;30799;49.060;9.312;2023-03-01T07:29:14;18.80;58.30
45060;DHT22;30799;49.060;9.312;2023-03-01T07:31:40;18.80;58.20
45060;DHT22;30799;49.060;9.312;2023-03-01T07:34:07;18.80;58.40
45060;DHT22;30799;49.060;9.312;2023-03-01T07:36:34;18.70;58.20
45060;DHT22;30799;49.060;9.312;2023-03-01T07:39:00;18.80;58.40
45060;DHT22;30799;49.060;9.312;2023-03-01T07:41:29;18.80;58.40
45060;DHT22;30799;49.060;9.312;2023-03-01T07:43:55;18.70;58.40
45060;DHT22;30799;49.060;9.312;2023-03-01T07:46:22;18.80;58.50
45060;DHT22;30799;49.060;9.312;2023-03-01T07:48:49;18.70;58.50
45060;DHT22;30799;49.060;9.312;2023-03-01T07:51:15;18.70;58.50
45060;DHT22;30799;49.060;9.312;2023-03-01T07:53:42;18.80;58.60
45060;DHT22;30799;49.060;9.312;2023-03-01T07:56:12;18.80;58.60
45060;DHT22;30799;49.060;9.312;2023-03-01T07:58:41;18.80;58.70
45060;DHT22;30799;49.060;9.312;2023-03-01T08:01:13;18.80;59.10
45060;DHT22;30799;49.060;9.312;2023-03-01T08:03:40;18.80;58.70
45060;DHT22;30799;49.060;9.312;2023-03-01T08:06:08;18.80;58.80
45060;DHT22;30799;49.060;9.312;2023-03-01T08:08:35;18.80;58.80
45060;DHT22;30799;49.060;9.312;2023-03-01T08:11:04;18.80;59.00
45060;DHT22;30799;49.060;9.312;2023-03-01T08:13:31;18.80;59.00
45060;DHT22;30799;49.060;9.312;2023-03-01T08:16:06;18.80;59.00
45060;DHT22;30799;49.060;9.312;2023-03-01T08:18:34;18.80;58.90
45060;DHT22;30799;49.060;9.312;2023-03-01T08:21:21;18.80;59.40
45060;DHT22;30799;49.060;9.312;2023-03-01T08:23:47;18.80;58.80
45060;DHT22;30799;49.060;9.312;2023-03-01T08:26:20;18.80;59.00
45060;DHT22;30799;49.060;9.312;2023-03-01T08:28:49;18.80;59.10
45060;DHT22;30799;49.060;9.312;2023-03-01T08:31:24;18.80;59.50
45060;DHT22;30799;49.060;9.312;2023-03-01T08:33:54;18.80;58.90
45060;DHT22;30799;49.060;9.312;2023-03-01T08:36:25;18.80;59.00
45060;DHT22;30799;49.060;9.312;2023-03-01T08:38:53;18.80;59.10
45060;DHT22;30799;49.060;9.312;2023-03-01T08:41:20;18.80;59.30
45060;DHT22;30799;49.060;9.312;2023-03-01T08:43:46;18.80;59.30
45060;DHT22;30799;49.060;9.312;2023-03-01T08:46:13;18.80;59.20
45060;DHT22;30799;49.060;9.312;2023-03-01T08:48:40;18.80;59.30
45060;DHT22;30799;49.060;9.312;2023-03-01T08:51:11;18.80;59.30
45060;DHT22;30799;49.060;9.312;2023-03-01T08:53:39;18.90;59.50
45060;DHT22;30799;49.060;9.312;2023-03-01T08:56:07;18.80;59.60
45060;DHT22;30799;49.060;9.312;2023-03-01T08:58:33;18.90;59.50
45060;DHT22;30799;49.060;9.312;2023-03-01T09:01:00;18.80;59.50
45060;DHT22;30799;49.060;9.312;2023-03-01T09:03:27;18.80;59.70
45060;DHT22;30799;49.060;9.312;2023-03-01T09:06:00;18.80;59.40
45060;DHT22;30799;49.060;9.312;2023-03-01T09:08:26;18.80;60.00
45060;DHT22;30799;49.060;9.312;2023-03-01T09:10:53;18.80;59.60
45060;DHT22;30799;49.060;9.312;2023-03-01T09:13:20;18.80;59.60
45060;DHT22;30799;49.060;9.312;2023-03-01T09:15:46;18.80;59.80
45060;DHT22;30799;49.060;9.312;2023-03-01T09:18:13;18.80;60.10
45060;DHT22;30799;49.060;9.312;2023-03-01T09:20:40;18.80;60.20
45060;DHT22;30799;49.060;9.312;2023-03-01T09:23:06;18.80;60.20
45060;DHT22;30799;49.060;9.312;2023-03-01T09:25:34;18.80;60.50
45060;DHT22;30799;49.060;9.312;2023-03-01T09:28:01;18.80;60.60
45060;DHT22;30799;49.060;9.312;2023-03-01T09:30:27;18.80;60.40
45060;DHT22;30799;49.060;9.312;2023-03-01T09:32:56;18.90;61.00
45060;DHT22;30799;49.060;9.312;2023-03-01T09:35:23;18.80;60.60
45060;DHT22;30799;49.060;9.312;2023-03-01T09:37:50;18.80;60.70
45060;DHT22;30799;49.060;9.312;2023-03-01T09:40:20;18.80;60.80
45060;DHT22;30799;49.060;9.312;2023-03-01T09:43:07;18.80;61.10
45060;DHT22;30799;49.060;9.312;2023-03-01T09:45:41;18.90;61.60
45060;DHT22;30799;49.060;9.312;2023-03-01T09:48:18;18.80;61.10
45060;DHT22;30799;49.060;9.312;2023-03-01T09:50:48;18.80;61.40
45060;DHT22;30799;49.060;9.312;2023-03-01T09:53:23;18.90;61.10
45060;DHT22;30799;49.060;9.312;2023-03-01T10:07:36;18.90;62.40
45060;DHT22;30799;49.060;9.312;2023-03-01T10:09:43;18.80;62.70
45060;DHT22;30799;49.060;9.312;2023-03-01T10:12:15;18.80;62.10
45060;DHT22;30799;49.060;9.312;2023-03-01T10:14:46;18.80;62.20
45060;DHT22;30799;49.060;9.312;2023-03-01T10:20:25;18.90;63.10
45060;DHT22;30799;49.060;9.312;2023-03-01T10:22:52;18.90;63.90
45060;DHT22;30799;49.060;9.312;2023-03-01T10:28:16;18.90;64.20
45060;DHT22;30799;49.060;9.312;2023-03-01T10:30:44;18.90;64.60
45060;DHT22;30799;49.060;9.312;2023-03-01T10:33:32;18.90;65.30
45060;DHT22;30799;49.060;9.312;2023-03-01T10:36:00;18.90;65.70
45060;DHT22;30799;49.060;9.312;2023-03-01T10:38:30;18.90;66.50
45060;DHT22;30799;49.060;9.312;2023-03-01T10:41:06;18.90;67.40
45060;DHT22;30799;49.060;9.312;2023-03-01T10:43:48;19.00;67.10
45060;DHT22;30799;49.060;9.312;2023-03-01T10:46:35;18.80;60.00
45060;DHT22;30799;49.060;9.312;2023-03-01T10:49:21;18.90;59.70
45060;DHT22;30799;49.060;9.312;2023-03-01T10:51:50;18.90;59.90
45060;DHT22;30799;49.060;9.312;2023-03-01T10:54:24;18.90;59.70
45060;DHT22;30799;49.060;9.312;2023-03-01T10:56:54;18.90;59.80
45060;DHT22;30799;49.060;9.312;2023-03-01T10:59:28;18.90;59.50
45060;DHT22;30799;49.060;9.312;2023-03-01T11:05:02;18.90;59.40
45060;DHT22;30799;49.060;9.312;2023-03-01T11:07:29;18.80;59.60
45060;DHT22;30799;49.060;9.312;2023-03-01T11:09:56;18.90;61.20
45060;DHT22;30799;49.060;9.312;2023-03-01T11:12:23;18.90;59.80
45060;DHT22;30799;49.060;9.312;2023-03-01T11:14:53;18.80;59.60
45060;DHT22;30799;49.060;9.312;2023-03-01T11:17:31;18.90;60.00
45060;DHT22;30799;49.060;9.312;2023-03-01T11:22:49;18.90;58.90
45060;DHT22;30799;49.060;9.312;2023-03-01T11:25:18;18.90;59.00
45060;DHT22;30799;49.060;9.312;2023-03-01T11:27:46;18.90;59.00
45060;DHT22;30799;49.060;9.312;2023-03-01T11:35:36;18.90;59.40
45060;DHT22;30799;49.060;9.312;2023-03-01T11:38:18;18.90;59.50
45060;DHT22;30799;49.060;9.312;2023-03-01T11:40:50;18.90;59.30
45060;DHT22;30799;49.060;9.312;2023-03-01T11:49:34;18.90;58.90
45060;DHT22;30799;49.060;9.312;2023-03-01T12:03:27;18.90;58.60
45060;DHT22;30799;49.060;9.312;2023-03-01T12:06:08;18.90;57.80
45060;DHT22;30799;49.060;9.312;2023-03-01T12:08:43;18.90;58.00
45060;DHT22;30799;49.060;9.312;2023-03-01T12:14:00;18.80;57.70
45060;DHT22;30799;49.060;9.312;2023-03-01T12:19:40;18.90;57.50
45060;DHT22;30799;49.060;9.312;2023-03-01T12:22:31;18.90;58.00
45060;DHT22;30799;49.060;9.312;2023-03-01T12:28:04;18.90;58.00
45060;DHT22;30799;49.060;9.312;2023-03-01T12:34:13;18.90;57.60
45060;DHT22;30799;49.060;9.312;2023-03-01T12:42:09;18.90;57.80
45060;DHT22;30799;49.060;9.312;2023-03-01T12:48:02;18.90;57.10
45060;DHT22;30799;49.060;9.312;2023-03-01T12:50:54;18.90;57.30
45060;DHT22;30799;49.060;9.312;2023-03-01T12:53:41;18.90;57.50
45060;DHT22;30799;49.060;9.312;2023-03-01T12:56:13;18.90;57.90
45060;DHT22;30799;49.060;9.312;2023-03-01T13:04:53;18.90;58.60
45060;DHT22;30799;49.060;9.312;2023-03-01T13:07:38;18.90;58.60
45060;DHT22;30799;49.060;9.312;2023-03-01T13:13:27;18.90;58.70
45060;DHT22;30799;49.060;9.312;2023-03-01T13:15:55;18.90;57.60
45060;DHT22;30799;49.060;9.312;2023-03-01T13:20:51;18.90;57.70
45060;DHT22;30799;49.060;9.312;2023-03-01T13:26:07;18.90;58.20
45060;DHT22;30799;49.060;9.312;2023-03-01T13:33:49;18.90;57.30
45060;DHT22;30799;49.060;9.312;2023-03-01T13:39:02;18.80;57.70
45060;DHT22;30799;49.060;9.312;2023-03-01T13:49:47;18.80;58.60
45060;DHT22;30799;49.060;9.312;2023-03-01T13:52:56;18.90;58.60
45060;DHT22;30799;49.060;9.312;2023-03-01T13:55:45;18.90;58.20
45060;DHT22;30799;49.060;9.312;2023-03-01T13:58:28;18.90;58.20
45060;DHT22;30799;49.060;9.312;2023-03-01T14:01:06;18.90;59.70
45060;DHT22;30799;49.060;9.312;2023-03-01T14:03:40;18.90;59.30
45060;DHT22;30799;49.060;9.312;2023-03-01T14:06:13;18.90;58.40
45060;DHT22;30799;49.060;9.312;2023-03-01T14:08:46;18.90;58.20
45060;DHT22;30799;49.060;9.312;2023-03-01T14:14:23;18.90;59.60
45060;DHT22;30799;49.060;9.312;2023-03-01T14:20:02;18.90;58.40
45060;DHT22;30799;49.060;9.312;2023-03-01T14:22:35;18.90;58.10
45060;DHT22;30799;49.060;9.312;2023-03-01T14:25:05;18.90;58.20
45060;DHT22;30799;49.060;9.312;2023-03-01T14:27:37;18.90;58.20
45060;DHT22;30799;49.060;9.312;2023-03-01T14:30:21;18.80;59.50
45060;DHT22;30799;49.060;9.312;2023-03-01T14:33:00;18.90;58.60
45060;DHT22;30799;49.060;9.312;2023-03-01T14:35:33;18.90;59.10
45060;DHT22;30799;49.060;9.312;2023-03-01T14:38:00;18.80;60.00
45060;DHT22;30799;49.060;9.312;2023-03-01T14:40:33;18.90;58.50
45060;DHT22;30799;49.060;9.312;2023-03-01T14:43:08;18.90;59.10
45060;DHT22;30799;49.060;9.312;2023-03-01T14:45:36;18.90;59.20
45060;DHT22;30799;49.060;9.312;2023-03-01T14:48:04;18.90;58.80
45060;DHT22;30799;49.060;9.312;2023-03-01T14:50:34;18.90;58.40
45060;DHT22;30799;49.060;9.312;2023-03-01T14:53:04;18.90;58.30
45060;DHT22;30799;49.060;9.312;2023-03-01T14:55:34;18.90;59.80
45060;DHT22;30799;49.060;9.312;2023-03-01T14:58:09;18.90;59.30
45060;DHT22;30799;49.060;9.312;2023-03-01T15:00:38;18.90;58.50
45060;DHT22;30799;49.060;9.312;2023-03-01T15:03:08;18.90;58.00
45060;DHT22;30799;49.060;9.312;2023-03-01T15:05:40;18.90;58.30
45060;DHT22;30799;49.060;9.312;2023-03-01T15:08:17;18.90;59.50
45060;DHT22;30799;49.060;9.312;2023-03-01T15:10:57;18.90;58.80
45060;DHT22;30799;49.060;9.312;2023-03-01T15:13:25;18.90;58.80
45060;DHT22;30799;49.060;9.312;2023-03-01T15:16:22;18.90;59.00
45060;DHT22;30799;49.060;9.312;2023-03-01T15:18:50;18.90;60.20
45060;DHT22;30799;49.060;9.312;2023-03-01T15:21:23;18.90;59.20
45060;DHT22;30799;49.060;9.312;2023-03-01T15:23:53;18.90;59.00
45060;DHT22;30799;49.060;9.312;2023-03-01T15:26:40;18.90;59.20
45060;DHT22;30799;49.060;9.312;2023-03-01T15:29:18;18.90;59.40
45060;DHT22;30799;49.060;9.312;2023-03-01T15:32:04;18.90;59.80
45060;DHT22;30799;49.060;9.312;2023-03-01T15:34:33;18.90;58.80
45060;DHT22;30799;49.060;9.312;2023-03-01T15:37:36;18.90;59.00
45060;DHT22;30799;49.060;9.312;2023-03-01T15:39:55;18.90;59.70
45060;DHT22;30799;49.060;9.312;2023-03-01T15:45:28;18.90;58.20
45060;DHT22;30799;49.060;9.312;2023-03-01T15:47:57;18.90;58.20
45060;DHT22;30799;49.060;9.312;2023-03-01T15:52:56;18.90;57.50
45060;DHT22;30799;49.060;9.312;2023-03-01T15:55:26;18.90;57.80
45060;DHT22;30799;49.060;9.312;2023-03-01T15:58:00;18.90;58.50
45060;DHT22;30799;49.060;9.312;2023-03-01T16:00:29;18.90;58.30
45060;DHT22;30799;49.060;9.312;2023-03-01T16:02:55;18.90;57.70
45060;DHT22;30799;49.060;9.312;2023-03-01T16:05:29;18.90;58.20
45060;DHT22;30799;49.060;9.312;2023-03-01T16:07:56;18.90;59.10
45060;DHT22;30799;49.060;9.312;2023-03-01T16:10:24;18.90;58.50
45060;DHT22;30799;49.060;9.312;2023-03-01T16:12:51;18.90;58.00
45060;DHT22;30799;49.060;9.312;2023-03-01T16:15:25;18.90;58.10
45060;DHT22;30799;49.060;9.312;2023-03-01T16:17:52;18.90;57.70
45060;DHT22;30799;49.060;9.312;2023-03-01T16:20:18;18.90;57.60
45060;DHT22;30799;49.060;9.312;2023-03-01T16:22:54;18.90;57.40
45060;DHT22;30799;49.060;9.312;2023-03-01T16:25:21;18.90;57.30
45060;DHT22;30799;49.060;9.312;2023-03-01T16:27:50;18.90;57.50
45060;DHT22;30799;49.060;9.312;2023-03-01T16:30:19;18.90;57.80
45060;DHT22;30799;49.060;9.312;2023-03-01T16:32:47;18.90;57.40
45060;DHT22;30799;49.060;9.312;2023-03-01T16:35:18;18.90;57.40
45060;DHT22;30799;49.060;9.312;2023-03-01T16:37:45;18.80;54.20
45060;DHT22;30799;49.060;9.312;2023-03-01T16:40:19;17.80;48.80
45060;DHT22;30799;49.060;9.312;2023-03-01T16:42:48;17.00;49.90
45060;DHT22;30799;49.060;9.312;2023-03-01T16:45:14;16.60;53.00
45060;DHT22;30799;49.060;9.312;2023-03-01T16:47:50;16.40;50.60
45060;DHT22;30799;49.060;9.312;2023-03-01T16:50:21;16.10;50.00
45060;DHT22;30799;49.060;9.312;2023-03-01T16:52:48;16.00;49.60
45060;DHT22;30799;49.060;9.312;2023-03-01T16:55:15;15.90;50.80
45060;DHT22;30799;49.060;9.312;2023-03-01T16:57:42;15.70;51.50
45060;DHT22;30799;49.060;9.312;2023-03-01T17:02:40;15.40;66.90
45060;DHT22;30799;49.060;9.312;2023-03-01T17:05:08;16.00;62.80
45060;DHT22;30799;49.060;9.312;2023-03-01T17:07:37;16.80;52.50
45060;DHT22;30799;49.060;9.312;2023-03-01T17:10:05;17.20;52.80
45060;DHT22;30799;49.060;9.312;2023-03-01T17:12:35;17.50;53.40
45060;DHT22;30799;49.060;9.312;2023-03-01T17:15:02;17.70;53.40
45060;DHT22;30799;49.060;9.312;2023-03-01T17:17:30;17.40;51.00
45060;DHT22;30799;49.060;9.312;2023-03-01T17:19:57;17.60;52.00
45060;DHT22;30799;49.060;9.312;2023-03-01T17:22:24;17.80;52.90
45060;DHT22;30799;49.060;9.312;2023-03-01T17:24:51;17.90;50.20
45060;DHT22;30799;49.060;9.312;2023-03-01T17:27:18;17.90;52.70
45060;DHT22;30799;49.060;9.312;2023-03-01T17:29:45;18.00;52.70
45060;DHT22;30799;49.060;9.312;2023-03-01T17:32:13;18.10;51.90
45060;DHT22;30799;49.060;9.312;2023-03-01T17:34:40;18.20;52.90
45060;DHT22;30799;49.060;9.312;2023-03-01T17:37:07;18.10;53.20
45060;DHT22;30799;49.060;9.312;2023-03-01T17:39:33;18.20;53.50
45060;DHT22;30799;49.060;9.312;2023-03-01T17:42:03;18.20;53.80
45060;DHT22;30799;49.060;9.312;2023-03-01T17:44:32;18.30;54.00
45060;DHT22;30799;49.060;9.312;2023-03-01T17:47:04;18.30;54.20
45060;DHT22;30799;49.060;9.312;2023-03-01T17:49:31;18.40;54.70
45060;DHT22;30799;49.060;9.312;2023-03-01T17:51:58;18.40;54.90
45060;DHT22;30799;49.060;9.312;2023-03-01T17:54:25;18.50;54.30
45060;DHT22;30799;49.060;9.312;2023-03-01T17:56:53;18.70;55.30
45060;DHT22;30799;49.060;9.312;2023-03-01T17:59:21;18.80;55.80